Time;durP1;ratioP1;P1;durP2;ratioP2;P2;SDS_P1;SDS_P2;PMS_P1;PMS_P2;Temp;Humidity;BMP_temperature;BMP_pressure;BME280_temperature;BME280_humidity;BME280_pressure;Samples;Min_cycle;Max_cycle;Signal;HPM_P1;HPM_P2
2022/11/02 00:02:25;;;;;;;6.15;0.95;;;13.50;74.20;;;;;;5075245;28;20060;-75
2022/11/02 00:04:53;;;;;;;6.10;0.60;;;13.50;74.50;;;;;;5068411;28;20041;-75
2022/11/02 00:07:20;;;;;;;6.32;1.05;;;13.50;74.70;;;;;;5072738;28;20049;-75
2022/11/02 00:09:47;;;;;;;5.63;0.80;;;13.40;75.00;;;;;;5074365;28;20052;-75
2022/11/02 00:12:14;;;;;;;5.13;0.90;;;13.40;75.30;;;;;;5089995;28;20044;-75
2022/11/02 00:14:41;;;;;;;6.43;0.60;;;13.30;75.40;;;;;;5093284;28;20048;-75
2022/11/02 00:17:08;;;;;;;4.50;0.60;;;13.30;75.70;;;;;;5092726;28;20048;-75
2022/11/02 00:19:35;;;;;;;6.15;0.70;;;13.30;75.50;;;;;;5074151;28;20059;-75
2022/11/02 00:22:04;;;;;;;5.88;1.00;;;13.30;75.90;;;;;;5074636;28;20054;-75
2022/11/02 00:24:33;;;;;;;4.40;0.70;;;13.30;76.20;;;;;;5074014;28;20566;-75
2022/11/02 00:27:01;;;;;;;4.80;0.85;;;13.30;76.40;;;;;;5057690;28;20462;-75
2022/11/02 00:29:28;;;;;;;5.50;0.80;;;13.20;76.60;;;;;;5066634;28;20053;-75
2022/11/02 00:31:55;;;;;;;3.35;0.70;;;13.20;76.60;;;;;;5056732;28;20052;-75
2022/11/02 00:34:22;;;;;;;5.13;0.80;;;13.20;76.90;;;;;;5069515;28;20115;-75
2022/11/02 00:36:50;;;;;;;7.28;0.93;;;13.10;76.70;;;;;;5072302;28;20506;-75
2022/11/02 00:39:18;;;;;;;6.30;1.10;;;13.10;77.10;;;;;;5074175;28;20056;-75
2022/11/02 00:41:45;;;;;;;7.47;1.10;;;13.10;77.30;;;;;;5074350;28;20487;-75
2022/11/02 00:44:12;;;;;;;7.03;0.90;;;13.10;77.20;;;;;;5057380;28;20875;-75
2022/11/02 00:46:39;;;;;;;5.85;1.08;;;13.10;77.50;;;;;;5066318;28;20166;-75
2022/11/02 00:49:06;;;;;;;10.27;1.50;;;13.10;77.60;;;;;;5053537;28;20131;-75
2022/11/02 00:51:35;;;;;;;7.97;1.65;;;13.20;78.30;;;;;;5037481;28;20122;-75
2022/11/02 00:54:02;;;;;;;6.90;1.03;;;13.10;78.50;;;;;;5053648;28;20061;-75
2022/11/02 00:56:31;;;;;;;6.90;0.88;;;13.10;78.70;;;;;;5046177;28;20126;-76
2022/11/02 00:58:58;;;;;;;7.47;1.40;;;13.10;78.60;;;;;;5073598;28;20132;-75
2022/11/02 01:01:25;;;;;;;6.43;1.27;;;13.10;78.70;;;;;;5057011;28;20094;-76
2022/11/02 01:03:52;;;;;;;7.13;1.08;;;13.10;78.70;;;;;;5048640;28;20045;-76
2022/11/02 01:06:19;;;;;;;4.37;0.93;;;13.10;78.70;;;;;;5070551;28;20143;-76
2022/11/02 01:08:46;;;;;;;7.45;1.52;;;13.10;78.90;;;;;;5037029;28;20495;-75
2022/11/02 01:11:15;;;;;;;5.57;1.10;;;13.10;79.00;;;;;;5037188;28;20076;-75
2022/11/02 01:13:44;;;;;;;4.38;0.90;;;13.00;79.20;;;;;;5074924;28;20100;-75
2022/11/02 01:16:12;;;;;;;7.65;1.33;;;13.10;79.50;;;;;;5071469;28;20057;-75
2022/11/02 01:18:39;;;;;;;6.57;1.17;;;13.00;79.40;;;;;;5074237;28;20051;-75
2022/11/02 01:21:07;;;;;;;4.85;0.80;;;13.00;79.70;;;;;;5055461;28;20048;-75
2022/11/02 01:23:36;;;;;;;9.57;0.93;;;13.00;79.70;;;;;;5056808;28;20533;-75
2022/11/02 01:26:04;;;;;;;6.60;1.30;;;12.90;79.80;;;;;;5052982;28;20045;-75
2022/11/02 01:28:31;;;;;;;10.00;1.17;;;12.90;80.40;;;;;;5070284;28;20049;-75
2022/11/02 01:31:00;;;;;;;7.67;1.20;;;12.90;80.20;;;;;;5083818;28;20052;-76
2022/11/02 01:33:29;;;;;;;8.13;1.15;;;12.90;80.30;;;;;;5056771;28;20041;-75
2022/11/02 01:35:56;;;;;;;6.95;1.25;;;12.90;80.40;;;;;;5073095;28;20602;-75
2022/11/02 01:38:24;;;;;;;7.90;1.05;;;12.90;80.30;;;;;;5035736;28;20136;-75
2022/11/02 01:40:51;;;;;;;6.70;1.02;;;12.90;80.50;;;;;;5054087;28;20515;-75
2022/11/02 01:43:23;;;;;;;7.23;1.33;;;12.90;80.30;;;;;;5053362;28;20422;-75
2022/11/02 01:45:54;;;;;;;7.97;1.35;;;12.90;80.30;;;;;;5056154;28;20131;-75
2022/11/02 01:48:28;;;;;;;7.82;1.42;;;12.90;80.40;;;;;;5053451;28;20077;-75
2022/11/02 01:50:57;;;;;;;7.97;1.40;;;12.90;80.30;;;;;;5057190;28;20060;-75
2022/11/02 01:53:24;;;;;;;8.25;1.58;;;12.90;80.40;;;;;;5091856;28;20062;-75
2022/11/02 01:55:52;;;;;;;8.00;1.40;;;12.90;80.30;;;;;;5059802;28;20509;-75
2022/11/02 01:58:19;;;;;;;8.57;1.42;;;12.90;80.10;;;;;;5053150;28;20048;-75
2022/11/02 02:00:46;;;;;;;9.07;1.73;;;12.90;80.10;;;;;;5042711;28;20128;-75
2022/11/02 02:03:41;;;;;;;8.43;1.27;;;12.90;80.10;;;;;;5055020;28;20144;-75
2022/11/02 02:06:12;;;;;;;9.15;1.38;;;12.90;80.10;;;;;;5042425;28;20127;-75
2022/11/02 02:08:44;;;;;;;7.87;1.60;;;12.90;80.10;;;;;;5036006;28;20061;-75
2022/11/02 02:11:28;;;;;;;7.32;1.30;;;12.90;80.20;;;;;;5035741;28;20548;-75
2022/11/02 02:13:58;;;;;;;8.13;1.48;;;12.90;80.10;;;;;;5034630;28;20056;-75
2022/11/02 02:16:46;;;;;;;6.93;1.70;;;12.90;80.10;;;;;;5050782;28;20050;-75
2022/11/02 02:19:29;;;;;;;6.70;1.30;;;12.90;80.00;;;;;;5072370;28;20048;-75
2022/11/02 02:22:15;;;;;;;10.80;1.67;;;12.90;79.70;;;;;;5072047;28;20049;-75
2022/11/02 02:24:49;;;;;;;14.50;1.60;;;12.90;79.70;;;;;;5054714;28;20056;-75
2022/11/02 02:27:21;;;;;;;7.15;1.70;;;12.90;79.70;;;;;;5072240;28;20059;-75
2022/11/02 02:30:03;;;;;;;10.38;1.58;;;12.90;79.70;;;;;;5062565;28;20045;-75
2022/11/02 02:32:38;;;;;;;8.60;1.35;;;12.90;79.80;;;;;;5035773;28;20398;-75
2022/11/02 02:35:15;;;;;;;5.13;0.90;;;12.90;79.70;;;;;;5069796;28;20118;-75
2022/11/02 02:37:49;;;;;;;7.97;1.05;;;12.90;79.00;;;;;;5034780;28;20080;-75
2022/11/02 02:40:21;;;;;;;7.32;0.70;;;12.90;78.10;;;;;;5064573;28;20166;-76
2022/11/02 02:42:53;;;;;;;5.95;0.60;;;12.80;77.60;;;;;;5054026;28;20110;-76
2022/11/02 02:45:26;;;;;;;4.68;0.80;;;12.80;77.10;;;;;;5070178;28;20534;-75
2022/11/02 02:48:00;;;;;;;5.27;0.60;;;12.70;76.60;;;;;;5053707;28;20620;-76
2022/11/02 02:50:31;;;;;;;4.07;0.82;;;12.70;76.50;;;;;;5046057;28;20044;-75
2022/11/02 02:53:02;;;;;;;7.22;1.13;;;12.50;76.90;;;;;;5070506;28;20045;-75
2022/11/02 02:55:34;;;;;;;4.97;1.10;;;12.50;77.30;;;;;;5069845;28;20123;-75
2022/11/02 02:58:03;;;;;;;5.32;1.00;;;12.50;77.80;;;;;;5054246;28;20068;-75
2022/11/02 03:00:34;;;;;;;7.37;0.80;;;12.50;78.30;;;;;;5051191;28;20047;-75
2022/11/02 03:03:04;;;;;;;6.28;1.10;;;12.50;78.50;;;;;;5034999;28;20070;-75
2022/11/02 03:05:34;;;;;;;4.90;1.00;;;12.50;78.80;;;;;;5050821;28;20099;-75
2022/11/02 03:08:07;;;;;;;7.80;0.90;;;12.50;78.70;;;;;;5035054;28;20045;-75
2022/11/02 03:10:42;;;;;;;5.72;0.85;;;12.50;78.30;;;;;;5054465;28;20668;-75
2022/11/02 03:13:26;;;;;;;5.83;0.90;;;12.50;78.10;;;;;;5071243;28;20049;-75
2022/11/02 03:15:59;;;;;;;7.22;1.00;;;12.50;77.70;;;;;;5054600;28;20076;-75
2022/11/02 03:18:35;;;;;;;6.35;0.93;;;12.50;76.80;;;;;;5052974;28;20052;-75
2022/11/02 03:21:13;;;;;;;10.85;1.13;;;12.50;76.30;;;;;;5032963;28;20495;-75
2022/11/02 03:23:47;;;;;;;9.55;0.98;;;12.40;76.00;;;;;;5038235;28;20600;-75
2022/11/02 03:26:22;;;;;;;6.80;0.77;;;12.40;75.70;;;;;;5054707;28;20049;-75
2022/11/02 03:28:59;;;;;;;5.05;0.60;;;12.30;75.30;;;;;;5070808;28;20048;-75
2022/11/02 03:31:36;;;;;;;5.15;0.68;;;12.30;74.90;;;;;;5071027;28;20056;-75
2022/11/02 03:34:16;;;;;;;6.50;0.82;;;12.20;74.60;;;;;;5089252;28;20053;-75
2022/11/02 03:36:46;;;;;;;5.13;0.45;;;12.20;74.30;;;;;;5071609;28;20457;-75
2022/11/02 03:39:18;;;;;;;7.17;0.80;;;12.20;74.00;;;;;;5069120;28;20517;-75
2022/11/02 03:41:47;;;;;;;5.57;0.50;;;12.10;73.80;;;;;;5054199;28;20068;-75
2022/11/02 03:44:20;;;;;;;4.93;0.57;;;12.10;73.80;;;;;;5053933;28;20040;-75
2022/11/02 03:46:52;;;;;;;7.22;0.82;;;12.10;74.10;;;;;;5054545;28;20040;-75
2022/11/02 03:49:22;;;;;;;4.18;0.60;;;12.00;74.20;;;;;;5054253;28;20052;-75
2022/11/02 03:51:51;;;;;;;5.33;0.70;;;12.00;74.10;;;;;;5054693;28;20053;-75
2022/11/02 03:54:27;;;;;;;4.45;0.60;;;12.00;74.30;;;;;;5054027;28;20510;-75
2022/11/02 03:56:59;;;;;;;7.30;0.88;;;12.00;74.20;;;;;;5068122;28;20056;-75
2022/11/02 03:59:30;;;;;;;6.13;0.60;;;11.90;74.40;;;;;;5066323;28;20498;-75
2022/11/02 04:02:01;;;;;;;5.65;0.80;;;11.90;74.50;;;;;;5074485;28;20051;-75
2022/11/02 04:04:29;;;;;;;5.43;0.60;;;11.90;74.80;;;;;;5070965;28;20069;-75
2022/11/02 04:06:56;;;;;;;3.97;0.82;;;11.90;74.80;;;;;;5053964;28;20124;-75
2022/11/02 04:09:23;;;;;;;7.00;0.60;;;11.90;75.00;;;;;;5064962;28;20088;-75
2022/11/02 04:14:46;;;;;;;6.60;0.98;;;11.90;74.80;;;;;;5048682;28;20631;-75
2022/11/02 04:20:09;;;;;;;8.10;0.73;;;11.90;75.10;;;;;;5057136;28;20059;-75
2022/11/02 04:25:22;;;;;;;5.78;0.88;;;11.90;75.10;;;;;;5092148;28;20525;-75
2022/11/02 04:28:09;;;;;;;8.98;1.02;;;11.90;75.00;;;;;;5058951;28;20049;-75
2022/11/02 04:30:43;;;;;;;7.67;1.07;;;11.90;75.00;;;;;;5057603;28;20053;-75
2022/11/02 04:36:05;;;;;;;7.80;0.68;;;11.90;75.20;;;;;;5036760;28;20503;-75
2022/11/02 04:38:41;;;;;;;4.72;0.73;;;11.80;75.40;;;;;;5041056;28;20539;-75
2022/11/02 04:44:04;;;;;;;4.93;0.70;;;11.90;75.60;;;;;;5037131;28;20113;-75
2022/11/02 04:46:34;;;;;;;5.43;0.88;;;11.80;75.80;;;;;;5052936;28;20055;-75
2022/11/02 04:49:04;;;;;;;5.65;1.20;;;11.80;75.90;;;;;;5071566;28;20048;-75
2022/11/02 04:51:33;;;;;;;7.70;0.70;;;11.80;76.10;;;;;;5053809;28;20053;-75
2022/11/02 04:54:01;;;;;;;8.32;1.17;;;11.80;76.20;;;;;;5053440;28;20510;-75
2022/11/02 04:56:30;;;;;;;7.33;1.30;;;11.80;76.50;;;;;;5062801;28;20071;-75
2022/11/02 04:58:59;;;;;;;7.20;1.48;;;11.80;76.50;;;;;;5056160;28;20099;-75
2022/11/02 05:01:28;;;;;;;10.13;1.80;;;11.80;76.70;;;;;;5073043;28;20060;-75
2022/11/02 05:03:56;;;;;;;8.02;1.10;;;11.80;76.80;;;;;;5065950;28;20052;-75
2022/11/02 05:06:26;;;;;;;10.65;1.85;;;11.90;76.80;;;;;;5038311;28;20056;-75
2022/11/02 05:08:55;;;;;;;6.73;1.30;;;11.90;76.90;;;;;;5056550;28;20102;-75
2022/11/02 05:11:23;;;;;;;5.70;1.00;;;11.90;77.10;;;;;;5072789;28;20044;-75
2022/11/02 05:13:51;;;;;;;7.28;0.95;;;11.90;77.30;;;;;;5052576;28;20741;-75
2022/11/02 05:16:19;;;;;;;6.00;1.10;;;11.90;77.40;;;;;;5052937;28;20057;-75
2022/11/02 05:18:48;;;;;;;8.23;1.52;;;11.90;77.40;;;;;;5052779;28;20049;-75
2022/11/02 05:21:16;;;;;;;6.40;1.20;;;11.90;77.60;;;;;;5055870;28;20052;-75
2022/11/02 05:23:44;;;;;;;7.50;1.38;;;11.90;77.50;;;;;;5071191;28;20053;-75
2022/11/02 05:26:12;;;;;;;5.80;1.05;;;11.90;77.50;;;;;;5039271;28;20041;-75
2022/11/02 05:28:43;;;;;;;7.15;1.40;;;11.90;77.50;;;;;;5052862;28;20067;-75
2022/11/02 05:31:10;;;;;;;7.57;1.38;;;11.90;77.90;;;;;;5057825;28;20053;-75
2022/11/02 05:33:37;;;;;;;7.50;1.30;;;11.90;77.90;;;;;;5052741;28;20052;-75
2022/11/02 05:36:11;;;;;;;5.55;1.15;;;11.90;77.80;;;;;;5066650;28;20596;-75
2022/11/02 05:38:40;;;;;;;8.00;1.30;;;11.90;78.00;;;;;;5040946;28;20049;-75
2022/11/02 05:41:09;;;;;;;12.13;1.48;;;11.90;77.90;;;;;;5053878;28;20049;-75
2022/11/02 05:43:39;;;;;;;8.57;1.40;;;11.90;78.40;;;;;;5036011;28;20136;-75
2022/11/02 05:46:08;;;;;;;12.30;1.80;;;11.90;78.60;;;;;;5040823;28;20135;-75
2022/11/02 05:48:35;;;;;;;8.15;1.17;;;11.90;78.90;;;;;;5072906;28;20621;-75
2022/11/02 05:51:04;;;;;;;10.57;1.52;;;11.90;79.00;;;;;;5072227;28;20049;-75
2022/11/02 05:53:32;;;;;;;11.00;1.73;;;11.90;79.30;;;;;;5089762;28;20469;-75
2022/11/02 05:56:00;;;;;;;9.63;1.80;;;11.90;79.50;;;;;;5077512;28;20510;-75
2022/11/02 05:58:29;;;;;;;8.37;1.30;;;11.90;79.80;;;;;;5072999;28;20590;-75
2022/11/02 06:00:59;;;;;;;7.65;1.58;;;11.90;80.00;;;;;;5088556;28;20056;-74
2022/11/02 06:03:27;;;;;;;14.52;2.10;;;11.80;80.40;;;;;;5072742;28;20125;-75
2022/11/02 06:05:56;;;;;;;9.38;1.85;;;11.80;80.40;;;;;;5072552;28;20160;-75
2022/11/02 06:08:24;;;;;;;9.02;1.75;;;11.90;80.70;;;;;;5091229;28;20048;-75
2022/11/02 06:10:51;;;;;;;9.53;1.77;;;11.80;80.70;;;;;;5072156;28;20124;-75
2022/11/02 06:13:18;;;;;;;10.07;1.63;;;11.80;81.00;;;;;;5078370;28;20059;-75
2022/11/02 06:15:46;;;;;;;7.20;1.50;;;11.80;81.10;;;;;;5059828;28;20087;-75
2022/11/02 06:18:13;;;;;;;11.80;1.77;;;11.70;80.90;;;;;;5055829;28;20044;-75
2022/11/02 06:20:40;;;;;;;9.45;1.58;;;11.70;81.00;;;;;;5072225;28;20509;-75
2022/11/02 06:23:07;;;;;;;10.07;1.60;;;11.70;81.20;;;;;;5072275;28;20041;-75
2022/11/02 06:25:34;;;;;;;12.70;2.20;;;11.70;81.20;;;;;;5072698;28;20506;-75
2022/11/02 06:28:01;;;;;;;9.35;1.48;;;11.70;81.20;;;;;;5089602;28;20041;-75
2022/11/02 06:30:31;;;;;;;6.38;1.30;;;11.70;81.20;;;;;;5053317;28;20093;-75
2022/11/02 06:32:59;;;;;;;9.15;1.73;;;11.70;81.20;;;;;;5072591;28;20051;-75
2022/11/02 06:35:26;;;;;;;9.23;2.03;;;11.70;81.30;;;;;;5070755;28;20262;-75
2022/11/02 06:37:53;;;;;;;11.45;1.70;;;11.70;81.40;;;;;;5091174;28;20053;-75
2022/11/02 06:40:20;;;;;;;11.13;1.50;;;11.70;81.60;;;;;;5090261;28;20052;-75
2022/11/02 06:42:48;;;;;;;4.72;0.98;;;11.70;81.60;;;;;;5072677;28;20059;-75
2022/11/02 06:45:15;;;;;;;11.32;2.22;;;11.70;81.60;;;;;;5063103;28;20049;-76
2022/11/02 06:47:42;;;;;;;9.63;1.60;;;11.70;81.70;;;;;;5063770;28;20045;-75
2022/11/02 06:50:12;;;;;;;11.32;1.50;;;11.60;81.60;;;;;;5090251;28;20052;-75
2022/11/02 06:52:43;;;;;;;8.57;1.67;;;11.60;81.80;;;;;;5075221;28;20045;-75
2022/11/02 06:55:10;;;;;;;13.13;1.77;;;11.60;81.90;;;;;;5082193;28;20853;-75
2022/11/02 06:57:38;;;;;;;8.15;1.60;;;11.70;81.80;;;;;;5068848;28;20041;-75
2022/11/02 07:00:07;;;;;;;14.10;1.83;;;11.60;82.00;;;;;;5071878;28;20127;-75
2022/11/02 07:02:34;;;;;;;9.40;1.85;;;11.70;82.20;;;;;;5090329;28;20059;-75
2022/11/02 07:05:01;;;;;;;11.32;1.65;;;11.70;82.10;;;;;;5057224;28;20049;-75
2022/11/02 07:07:30;;;;;;;13.63;2.03;;;11.70;82.20;;;;;;5070553;28;20071;-75
2022/11/02 07:09:57;;;;;;;9.52;1.70;;;11.70;82.30;;;;;;5064735;28;20059;-75
2022/11/02 07:12:24;;;;;;;7.43;1.40;;;11.70;82.40;;;;;;5087004;28;20067;-75
2022/11/02 07:14:51;;;;;;;12.73;1.65;;;11.70;82.50;;;;;;5071707;28;20052;-75
2022/11/02 07:17:18;;;;;;;11.98;1.83;;;11.70;82.60;;;;;;5090216;28;20055;-75
2022/11/02 07:19:45;;;;;;;11.82;1.75;;;11.70;82.90;;;;;;5071541;28;20140;-75
2022/11/02 07:22:12;;;;;;;12.30;1.60;;;11.70;82.80;;;;;;5087249;28;20495;-75
2022/11/02 07:24:41;;;;;;;9.50;1.30;;;11.70;82.80;;;;;;5083130;28;20139;-72
2022/11/02 07:27:07;;;;;;;8.77;0.88;;;11.70;82.80;;;;;;5061865;28;20179;-73
2022/11/02 07:29:35;;;;;;;12.10;1.70;;;11.70;82.90;;;;;;5079932;28;20055;-74
2022/11/02 07:32:02;;;;;;;6.65;1.02;;;11.70;83.00;;;;;;5059723;28;20045;-74
2022/11/02 07:34:29;;;;;;;7.80;1.40;;;11.70;82.90;;;;;;5080624;28;21051;-74
2022/11/02 07:36:56;;;;;;;3.17;0.80;;;11.70;82.50;;;;;;5080584;28;20059;-74
2022/11/02 07:39:23;;;;;;;5.20;1.08;;;11.70;82.50;;;;;;5061370;28;20056;-73
2022/11/02 07:41:52;;;;;;;5.28;0.88;;;11.70;82.60;;;;;;5066912;28;20047;-74
2022/11/02 07:44:19;;;;;;;6.45;0.65;;;11.70;82.20;;;;;;5088745;28;20530;-75
2022/11/02 07:46:54;;;;;;;7.18;1.10;;;11.60;82.20;;;;;;5073569;28;20044;-74
2022/11/02 07:49:21;;;;;;;7.13;0.80;;;11.50;82.40;;;;;;5082171;28;20049;-75
2022/11/02 07:51:48;;;;;;;9.02;1.17;;;11.50;82.50;;;;;;5071561;28;20055;-74
2022/11/02 07:54:15;;;;;;;6.95;1.20;;;11.50;82.60;;;;;;5071850;28;20182;-75
2022/11/02 07:56:44;;;;;;;10.27;1.15;;;11.50;82.80;;;;;;5083022;28;20045;-75
2022/11/02 07:59:13;;;;;;;8.60;1.25;;;11.50;83.20;;;;;;5083018;28;20049;-75
2022/11/02 08:01:40;;;;;;;8.33;1.33;;;11.50;83.50;;;;;;5093044;28;20041;-74
2022/11/02 08:04:07;;;;;;;9.43;1.42;;;11.50;83.60;;;;;;5082316;28;20611;-75
2022/11/02 08:06:35;;;;;;;8.75;1.55;;;11.50;83.70;;;;;;5066637;28;21011;-74
2022/11/02 08:09:02;;;;;;;10.05;1.33;;;11.50;83.90;;;;;;5083845;28;20048;-74
2022/11/02 08:11:30;;;;;;;9.73;0.95;;;11.50;84.00;;;;;;5084713;28;20086;-74
2022/11/02 08:13:57;;;;;;;11.70;1.47;;;11.50;84.00;;;;;;5084826;28;20052;-73
2022/11/02 08:16:26;;;;;;;8.05;1.05;;;11.60;83.80;;;;;;5059641;28;20541;-74
2022/11/02 08:18:53;;;;;;;8.10;1.50;;;11.60;83.80;;;;;;5061673;28;20732;-74
2022/11/02 08:21:20;;;;;;;4.63;0.60;;;11.60;84.00;;;;;;5068402;28;20044;-74
2022/11/02 08:23:47;;;;;;;11.73;1.40;;;11.60;84.10;;;;;;5059560;28;20116;-74
2022/11/02 08:26:14;;;;;;;9.10;1.27;;;11.60;84.10;;;;;;5037224;28;20052;-73
2022/11/02 08:28:41;;;;;;;6.95;1.33;;;11.60;84.20;;;;;;5066158;28;20086;-74
2022/11/02 08:31:14;;;;;;;8.85;1.02;;;11.70;84.40;;;;;;5071073;28;20094;-74
2022/11/02 08:33:42;;;;;;;8.80;1.35;;;11.70;84.30;;;;;;5091402;28;20805;-74
2022/11/02 08:36:10;;;;;;;12.02;1.25;;;11.70;84.30;;;;;;5072878;28;20052;-74
2022/11/02 08:38:38;;;;;;;10.47;1.40;;;11.70;84.20;;;;;;5090585;28;20056;-74
2022/11/02 08:41:05;;;;;;;8.55;1.05;;;11.70;84.20;;;;;;5072141;28;20051;-74
2022/11/02 08:43:32;;;;;;;8.55;1.08;;;11.70;84.10;;;;;;5071844;28;20793;-74
2022/11/02 08:46:01;;;;;;;7.15;1.02;;;11.70;83.90;;;;;;5071204;28;20407;-73
2022/11/02 08:48:29;;;;;;;5.22;0.80;;;11.70;83.50;;;;;;5061802;28;20163;-73
2022/11/02 08:51:47;;;;;;;6.47;0.90;;;11.70;83.40;;;;;;5080361;28;20052;-74
2022/11/02 08:54:15;;;;;;;4.07;0.63;;;11.80;83.40;;;;;;5071480;28;20061;-74
2022/11/02 08:56:42;;;;;;;8.02;0.80;;;11.90;82.80;;;;;;5081630;28;20060;-75
2022/11/02 08:59:10;;;;;;;5.60;0.65;;;11.90;82.30;;;;;;5062631;28;20135;-76
2022/11/02 09:01:37;;;;;;;6.50;0.90;;;11.90;81.90;;;;;;5064339;28;20550;-74
2022/11/02 09:04:05;;;;;;;5.00;0.60;;;11.90;82.00;;;;;;5078999;28;20055;-74
2022/11/02 09:06:32;;;;;;;8.38;1.15;;;11.90;80.90;;;;;;5064002;28;20099;-74
2022/11/02 09:08:59;;;;;;;9.05;1.20;;;12.00;80.50;;;;;;5065832;28;20102;-74
2022/11/02 09:11:28;;;;;;;5.95;0.80;;;12.00;79.90;;;;;;5068647;28;20468;-74
2022/11/02 09:13:56;;;;;;;6.22;0.90;;;12.00;80.10;;;;;;5065040;28;20939;-74
2022/11/02 09:16:23;;;;;;;7.57;0.80;;;12.00;79.70;;;;;;5078457;28;20049;-74
2022/11/02 09:18:50;;;;;;;5.68;0.90;;;12.00;79.40;;;;;;5062944;28;20132;-75
2022/11/02 09:21:17;;;;;;;6.53;0.80;;;12.10;78.60;;;;;;5061027;28;20045;-76
2022/11/02 09:23:47;;;;;;;4.85;0.70;;;12.10;78.90;;;;;;5052707;28;20048;-76
2022/11/02 09:26:14;;;;;;;7.65;0.52;;;12.10;78.90;;;;;;5077325;28;20132;-74
2022/11/02 09:28:42;;;;;;;6.60;0.90;;;12.20;78.90;;;;;;5088681;28;20048;-74
2022/11/02 09:31:10;;;;;;;6.00;0.93;;;12.20;78.60;;;;;;5082340;28;20123;-75
2022/11/02 09:33:37;;;;;;;6.45;0.80;;;12.20;77.40;;;;;;5082329;28;20058;-74
2022/11/02 09:36:05;;;;;;;4.82;0.70;;;12.30;77.70;;;;;;5054599;28;20045;-74
2022/11/02 09:38:33;;;;;;;4.47;0.70;;;12.30;77.50;;;;;;5086306;28;20052;-74
2022/11/02 09:41:12;;;;;;;7.37;0.60;;;12.30;77.30;;;;;;5061061;28;20512;-74
2022/11/02 09:43:49;;;;;;;6.32;0.82;;;12.40;77.00;;;;;;5065047;28;20083;-73
2022/11/02 09:46:20;;;;;;;9.77;0.98;;;12.50;77.00;;;;;;5065985;28;20045;-74
2022/11/02 09:48:50;;;;;;;7.35;1.48;;;12.50;76.90;;;;;;5060460;28;20115;-74
2022/11/02 09:51:20;;;;;;;5.10;1.00;;;12.50;75.50;;;;;;5061456;28;20102;-75
2022/11/02 09:53:54;;;;;;;5.93;1.03;;;12.50;75.80;;;;;;5079465;28;20045;-74
2022/11/02 09:56:23;;;;;;;8.80;1.20;;;12.50;75.00;;;;;;5050286;28;20598;-74
2022/11/02 09:59:00;;;;;;;7.97;1.02;;;12.60;75.10;;;;;;5049231;28;20465;-74
2022/11/02 10:02:02;;;;;;;7.03;1.00;;;12.70;74.70;;;;;;5060837;28;20048;-74
2022/11/02 10:04:45;;;;;;;6.95;0.60;;;12.70;74.20;;;;;;5001030;28;20065;-74
2022/11/02 10:07:21;;;;;;;6.80;0.80;;;12.80;73.90;;;;;;5065785;28;20053;-75
2022/11/02 10:09:54;;;;;;;8.48;0.90;;;12.80;73.60;;;;;;5051835;28;20049;-75
2022/11/02 10:12:27;;;;;;;5.90;0.90;;;12.80;74.10;;;;;;5067847;28;20048;-75
2022/11/02 10:15:02;;;;;;;9.07;1.13;;;12.80;73.10;;;;;;5071406;28;20704;-75
2022/11/02 10:17:35;;;;;;;9.95;1.05;;;12.90;73.20;;;;;;5089419;28;20054;-75
2022/11/02 10:20:07;;;;;;;8.03;0.63;;;12.90;71.90;;;;;;5064376;28;20045;-76
2022/11/02 10:22:39;;;;;;;9.20;0.98;;;13.00;71.50;;;;;;5081197;28;20083;-76
2022/11/02 10:25:11;;;;;;;6.97;1.00;;;13.00;72.00;;;;;;5089456;28;20056;-76
2022/11/02 10:27:39;;;;;;;7.88;0.77;;;13.00;71.20;;;;;;5070956;28;20149;-76
2022/11/02 10:30:13;;;;;;;6.40;1.00;;;13.00;70.90;;;;;;5067662;28;20059;-74
2022/11/02 10:32:42;;;;;;;7.13;0.93;;;13.00;70.60;;;;;;5068763;28;20052;-74
2022/11/02 10:35:18;;;;;;;7.35;0.75;;;13.00;71.20;;;;;;5066136;28;20049;-74
2022/11/02 10:37:59;;;;;;;3.40;0.55;;;13.00;70.90;;;;;;5055751;28;20048;-74
2022/11/02 10:40:44;;;;;;;8.80;0.95;;;13.00;70.80;;;;;;5078031;28;20060;-74
2022/11/02 10:43:22;;;;;;;6.70;0.73;;;13.10;71.10;;;;;;5057335;28;20073;-74
2022/11/02 10:46:10;;;;;;;6.90;0.53;;;13.00;71.60;;;;;;5066155;28;20048;-74
2022/11/02 10:48:48;;;;;;;10.43;0.98;;;13.10;70.00;;;;;;5051879;28;20079;-74
2022/11/02 10:51:16;;;;;;;6.03;0.80;;;13.10;69.80;;;;;;5069682;28;20126;-74
2022/11/02 10:53:45;;;;;;;7.68;1.10;;;13.20;70.30;;;;;;5065936;28;20841;-74
2022/11/02 10:56:18;;;;;;;3.85;0.43;;;13.30;68.50;;;;;;5050539;28;20144;-74
2022/11/02 10:58:51;;;;;;;5.47;0.40;;;13.30;68.60;;;;;;5065512;28;20137;-74
2022/11/02 11:01:19;;;;;;;9.10;0.98;;;13.40;68.30;;;;;;5057673;28;20052;-74
2022/11/02 11:03:58;;;;;;;9.35;1.13;;;13.40;69.40;;;;;;5067189;28;20052;-74
2022/11/02 11:06:28;;;;;;;9.30;0.70;;;13.50;69.30;;;;;;5047741;28;20475;-74
2022/11/02 11:09:00;;;;;;;7.38;0.82;;;13.50;69.30;;;;;;5042428;28;20076;-74
2022/11/02 11:11:30;;;;;;;4.70;0.60;;;13.50;68.80;;;;;;5072834;28;20123;-74
2022/11/02 11:14:00;;;;;;;5.80;0.82;;;13.60;66.70;;;;;;5090812;28;20049;-75
2022/11/02 11:16:46;;;;;;;6.03;0.90;;;13.60;67.00;;;;;;5088628;28;20056;-75
2022/11/02 11:19:20;;;;;;;5.15;0.70;;;13.60;67.00;;;;;;5072404;28;20190;-74
2022/11/02 11:21:48;;;;;;;2.70;0.28;;;13.60;66.90;;;;;;5072635;28;20090;-74
2022/11/02 11:24:30;;;;;;;4.67;0.50;;;13.60;66.60;;;;;;5070678;28;20049;-74
2022/11/02 11:27:16;;;;;;;8.07;0.80;;;13.60;66.90;;;;;;5092162;28;20052;-74
2022/11/02 11:29:49;;;;;;;6.50;0.70;;;13.60;66.40;;;;;;5074156;28;20867;-74
2022/11/02 11:32:21;;;;;;;4.55;0.80;;;13.60;66.30;;;;;;5083165;28;20044;-74
2022/11/02 11:34:56;;;;;;;6.82;0.60;;;13.50;66.60;;;;;;5064450;28;20528;-75
2022/11/02 11:37:24;;;;;;;5.27;0.50;;;13.50;67.30;;;;;;5066223;28;20490;-75
2022/11/02 11:39:55;;;;;;;4.15;0.90;;;13.60;65.80;;;;;;5063903;28;20050;-75
2022/11/02 11:42:25;;;;;;;6.70;0.80;;;13.70;66.40;;;;;;5081550;28;20110;-75
2022/11/02 11:44:58;;;;;;;4.75;0.60;;;13.80;66.70;;;;;;5069603;28;20060;-75
2022/11/02 11:47:31;;;;;;;7.55;1.02;;;13.90;65.60;;;;;;5090159;28;20114;-75
2022/11/02 11:50:02;;;;;;;6.50;0.70;;;13.90;65.80;;;;;;5065389;28;20119;-76
2022/11/02 11:52:32;;;;;;;9.50;0.90;;;14.00;65.10;;;;;;5070494;28;20052;-75
2022/11/02 11:55:01;;;;;;;7.82;0.68;;;14.00;64.40;;;;;;5074478;28;20584;-75
2022/11/02 11:57:31;;;;;;;7.65;0.75;;;14.00;64.90;;;;;;5082647;28;20080;-76
2022/11/02 12:00:00;;;;;;;4.95;0.60;;;14.10;64.80;;;;;;5087417;28;20056;-76
2022/11/02 12:02:30;;;;;;;7.47;0.80;;;14.10;64.00;;;;;;5073479;28;20052;-75
2022/11/02 12:05:04;;;;;;;6.90;0.88;;;14.10;64.70;;;;;;5076728;28;20531;-74
2022/11/02 12:08:04;;;;;;;7.05;0.98;;;14.10;63.50;;;;;;5065630;28;20061;-76
2022/11/02 12:10:52;;;;;;;4.32;0.60;;;14.10;63.70;;;;;;5062798;28;20135;-76
2022/11/02 12:13:41;;;;;;;5.65;0.70;;;14.20;63.30;;;;;;5051883;28;20044;-77
2022/11/02 12:16:16;;;;;;;8.07;0.60;;;14.30;63.00;;;;;;5089486;28;20498;-78
2022/11/02 12:19:06;;;;;;;7.07;0.73;;;14.30;63.20;;;;;;5080261;28;20458;-76
2022/11/02 12:21:45;;;;;;;5.38;0.68;;;14.40;63.70;;;;;;5052938;28;20057;-76
2022/11/02 12:24:32;;;;;;;5.32;0.80;;;14.40;61.90;;;;;;5062845;28;20558;-74
2022/11/02 12:27:15;;;;;;;6.20;0.80;;;14.50;61.60;;;;;;5086932;28;20052;-74
2022/11/02 12:29:57;;;;;;;6.97;0.70;;;14.50;61.60;;;;;;5078848;28;20084;-74
2022/11/02 12:32:40;;;;;;;9.23;0.80;;;14.50;62.20;;;;;;5072101;28;20576;-74
2022/11/02 12:35:34;;;;;;;3.40;0.40;;;14.50;61.60;;;;;;5060727;28;20142;-74
2022/11/02 12:38:19;;;;;;;4.75;0.55;;;14.50;61.60;;;;;;5070222;28;20052;-74
2022/11/02 12:40:59;;;;;;;7.93;0.88;;;14.40;61.20;;;;;;5075205;28;20476;-74
2022/11/02 12:43:42;;;;;;;7.87;0.97;;;14.40;61.70;;;;;;5066062;28;20048;-77
2022/11/02 12:46:19;;;;;;;7.32;0.85;;;14.40;61.20;;;;;;5053019;28;20102;-76
2022/11/02 12:48:57;;;;;;;7.85;1.08;;;14.40;61.60;;;;;;5066995;28;20057;-76
2022/11/02 12:51:29;;;;;;;6.95;0.88;;;14.40;61.50;;;;;;5082689;28;20060;-76
2022/11/02 12:53:58;;;;;;;4.85;0.55;;;14.30;61.70;;;;;;5063769;28;20132;-77
2022/11/02 12:56:34;;;;;;;7.70;0.70;;;14.30;62.10;;;;;;5082086;28;20057;-76
2022/11/02 12:59:01;;;;;;;8.80;0.70;;;14.30;62.40;;;;;;5063758;28;20068;-76
2022/11/02 13:01:31;;;;;;;7.53;0.70;;;14.30;62.70;;;;;;5060764;28;20608;-76
2022/11/02 13:04:03;;;;;;;6.70;0.93;;;14.30;62.40;;;;;;5081470;28;20537;-76
2022/11/02 13:06:36;;;;;;;6.63;0.60;;;14.30;62.30;;;;;;5063667;28;20056;-76
2022/11/02 13:09:09;;;;;;;7.53;1.27;;;14.30;62.40;;;;;;5055840;28;20053;-76
2022/11/02 13:11:40;;;;;;;6.53;0.95;;;14.30;61.10;;;;;;5073390;28;20053;-76
2022/11/02 13:14:13;;;;;;;5.43;0.52;;;14.30;60.90;;;;;;5080482;28;20163;-76
2022/11/02 13:16:46;;;;;;;11.32;1.15;;;14.30;61.10;;;;;;5069754;28;20533;-76
2022/11/02 13:19:18;;;;;;;8.07;0.73;;;14.20;61.50;;;;;;5081709;28;20494;-77
2022/11/02 13:21:53;;;;;;;6.77;1.30;;;14.20;61.70;;;;;;5072015;28;20053;-74